AFL1040 UUEE-URSS
Flight info
| Callsign | AFL1040 |
|---|---|
| Flight time | 3h 27m |
| Altitude | 35000 |
| Route | TOGMO3J TOGMO M56 ABAGI B105 NIMTA/K0833F360 B105 NATIT/K0839F370 DCT MOLED N50 LIDUS G242 ZG DCT ITAKA/K0845F360 DCT OBBUD DCT AMKOL DCT GOTIK DCT MEMZA DCT VENFO DCT BINOL BINOL1L |
| Aircraft | B738/M-SDE2E3FGHIRWXY/LB1 |
Departure
| Time | 2026-05-05 16:56 |
|---|---|
| Airport | Sheremetyevo International Airport (UUEE) |
Arrival
| Time | 2026-05-05 20:24 |
|---|---|
| Airport | Sochi International Airport (URSS) |
| Time | Latitude | Longitude | Altitude | Speed | Heading |
|---|---|---|---|---|---|
| 2026-05-05 16:29 | 55.97792 | 37.41815 | 638 ft | 0 kts | 345° |
| 2026-05-05 16:48 | 55.97788 | 37.41817 | 641 ft | 2 kts | 345° |
| 2026-05-05 16:48 | 55.97773 | 37.41825 | 642 ft | 2 kts | 345° |
| 2026-05-05 16:49 | 55.97757 | 37.41832 | 638 ft | 2 kts | 345° |
| 2026-05-05 16:49 | 55.97741 | 37.41839 | 638 ft | 2 kts | 0° |
| 2026-05-05 16:49 | 55.97726 | 37.41830 | 640 ft | 2 kts | 48° |
| 2026-05-05 16:49 | 55.97718 | 37.41805 | 640 ft | 2 kts | 76° |
| 2026-05-05 16:50 | 55.97717 | 37.41793 | 639 ft | 0 kts | 77° |
| 2026-05-05 16:51 | 55.97717 | 37.41795 | 639 ft | 1 kts | 77° |
| 2026-05-05 16:51 | 55.97720 | 37.41816 | 641 ft | 3 kts | 76° |
| 2026-05-05 16:51 | 55.97727 | 37.41867 | 639 ft | 6 kts | 76° |
| 2026-05-05 16:52 | 55.97739 | 37.41948 | 642 ft | 8 kts | 75° |
| 2026-05-05 16:52 | 55.97754 | 37.42058 | 641 ft | 10 kts | 85° |
| 2026-05-05 16:52 | 55.97705 | 37.42137 | 642 ft | 11 kts | 147° |
| 2026-05-05 16:52 | 55.97696 | 37.42262 | 641 ft | 12 kts | 76° |
| 2026-05-05 16:53 | 55.97718 | 37.42410 | 638 ft | 13 kts | 75° |
| 2026-05-05 16:53 | 55.97744 | 37.42578 | 638 ft | 15 kts | 75° |
| 2026-05-05 16:53 | 55.97773 | 37.42779 | 639 ft | 16 kts | 75° |
| 2026-05-05 16:53 | 55.97804 | 37.42983 | 638 ft | 18 kts | 75° |
| 2026-05-05 16:54 | 55.97836 | 37.43199 | 646 ft | 19 kts | 75° |
| 2026-05-05 16:54 | 55.97871 | 37.43429 | 643 ft | 20 kts | 75° |
| 2026-05-05 16:54 | 55.97907 | 37.43670 | 647 ft | 21 kts | 75° |
| 2026-05-05 16:54 | 55.97939 | 37.43884 | 643 ft | 14 kts | 75° |
| 2026-05-05 16:55 | 55.97943 | 37.44015 | 642 ft | 9 kts | 132° |
| 2026-05-05 16:55 | 55.97877 | 37.44058 | 638 ft | 11 kts | 165° |
| 2026-05-05 16:55 | 55.97809 | 37.44080 | 639 ft | 9 kts | 187° |
| 2026-05-05 16:55 | 55.97776 | 37.43992 | 639 ft | 10 kts | 256° |
| 2026-05-05 16:56 | 55.97737 | 37.43728 | 640 ft | 50 kts | 255° |
| 2026-05-05 16:56 | 55.97586 | 37.42710 | 641 ft | 118 kts | 255° |
| 2026-05-05 16:56 | 55.97323 | 37.40955 | 658 ft | 171 kts | 253° |
| 2026-05-05 16:56 | 55.97019 | 37.38881 | 1351 ft | 168 kts | 255° |
| 2026-05-05 16:57 | 55.96717 | 37.36885 | 2198 ft | 167 kts | 257° |
| 2026-05-05 16:57 | 55.96400 | 37.34813 | 2721 ft | 186 kts | 256° |
| 2026-05-05 16:57 | 55.96035 | 37.32440 | 2953 ft | 210 kts | 255° |
| 2026-05-05 16:57 | 55.95625 | 37.29811 | 3283 ft | 226 kts | 255° |
| 2026-05-05 16:58 | 55.95197 | 37.27089 | 3918 ft | 229 kts | 255° |
| 2026-05-05 16:58 | 55.94767 | 37.24367 | 4670 ft | 228 kts | 254° |
| 2026-05-05 16:58 | 55.94324 | 37.21575 | 5164 ft | 243 kts | 253° |
| 2026-05-05 16:58 | 55.93856 | 37.18630 | 5867 ft | 249 kts | 253° |
| 2026-05-05 16:59 | 55.93385 | 37.15668 | 6753 ft | 248 kts | 253° |
| 2026-05-05 16:59 | 55.92912 | 37.12710 | 7542 ft | 249 kts | 253° |
| 2026-05-05 16:59 | 55.92430 | 37.09706 | 8303 ft | 253 kts | 253° |
| 2026-05-05 16:59 | 55.91946 | 37.06696 | 9164 ft | 253 kts | 253° |
| 2026-05-05 17:00 | 55.91680 | 37.03586 | 9913 ft | 258 kts | 273° |
| 2026-05-05 17:00 | 55.92186 | 37.00481 | 10594 ft | 267 kts | 292° |
| 2026-05-05 17:00 | 55.93316 | 36.97778 | 11285 ft | 280 kts | 313° |
| 2026-05-05 17:00 | 55.94896 | 36.95698 | 12087 ft | 284 kts | 319° |
| 2026-05-05 17:01 | 55.96539 | 36.93700 | 12793 ft | 288 kts | 320° |
| 2026-05-05 17:01 | 55.98391 | 36.92167 | 13445 ft | 305 kts | 342° |
| 2026-05-05 17:01 | 56.00555 | 36.92174 | 14094 ft | 321 kts | 8° |
| 2026-05-05 17:01 | 56.02634 | 36.93816 | 14748 ft | 333 kts | 28° |
| 2026-05-05 17:02 | 56.04570 | 36.96120 | 15402 ft | 336 kts | 30° |
| 2026-05-05 17:02 | 56.06516 | 36.98480 | 16024 ft | 339 kts | 29° |
| 2026-05-05 17:02 | 56.08487 | 37.00831 | 16660 ft | 342 kts | 29° |
| 2026-05-05 17:02 | 56.10462 | 37.03229 | 17289 ft | 347 kts | 35° |
| 2026-05-05 17:03 | 56.12031 | 37.06578 | 17832 ft | 361 kts | 60° |
| 2026-05-05 17:03 | 56.12882 | 37.10928 | 17993 ft | 380 kts | 76° |
| 2026-05-05 17:03 | 56.13491 | 37.15615 | 18328 ft | 390 kts | 76° |
| 2026-05-05 17:03 | 56.14122 | 37.20369 | 18869 ft | 393 kts | 75° |
| 2026-05-05 17:04 | 56.14647 | 37.25247 | 19429 ft | 395 kts | 88° |
| 2026-05-05 17:04 | 56.14283 | 37.30101 | 19951 ft | 395 kts | 111° |
| 2026-05-05 17:04 | 56.13035 | 37.34358 | 20485 ft | 390 kts | 131° |
| 2026-05-05 17:04 | 56.11102 | 37.37798 | 21012 ft | 385 kts | 150° |
| 2026-05-05 17:05 | 56.08764 | 37.40077 | 21509 ft | 383 kts | 160° |
| 2026-05-05 17:05 | 56.06332 | 37.42053 | 22007 ft | 386 kts | 161° |
| 2026-05-05 17:05 | 56.03873 | 37.44020 | 22494 ft | 389 kts | 160° |
| 2026-05-05 17:05 | 56.01399 | 37.46047 | 22982 ft | 393 kts | 160° |
| 2026-05-05 17:06 | 55.98896 | 37.48133 | 23478 ft | 396 kts | 159° |
| 2026-05-05 17:06 | 55.96462 | 37.50418 | 23864 ft | 404 kts | 148° |
| 2026-05-05 17:06 | 55.94481 | 37.54052 | 24247 ft | 416 kts | 126° |
| 2026-05-05 17:06 | 55.93260 | 37.58743 | 24671 ft | 422 kts | 105° |
| 2026-05-05 17:07 | 55.92691 | 37.63881 | 25110 ft | 424 kts | 101° |
| 2026-05-05 17:07 | 55.92185 | 37.69075 | 25484 ft | 426 kts | 101° |
| 2026-05-05 17:07 | 55.91593 | 37.74245 | 25947 ft | 425 kts | 109° |
| 2026-05-05 17:07 | 55.90332 | 37.78990 | 26306 ft | 424 kts | 123° |
| 2026-05-05 17:08 | 55.89329 | 37.81980 | 26574 ft | 426 kts | 123° |
| 2026-05-05 17:08 | 55.87820 | 37.86542 | 26919 ft | 429 kts | 122° |
| 2026-05-05 17:08 | 55.86339 | 37.91178 | 27275 ft | 432 kts | 121° |
| 2026-05-05 17:08 | 55.84738 | 37.95710 | 27589 ft | 432 kts | 134° |
| 2026-05-05 17:09 | 55.82460 | 37.99072 | 27908 ft | 424 kts | 155° |
| 2026-05-05 17:09 | 55.79758 | 38.00936 | 28292 ft | 415 kts | 173° |
| 2026-05-05 17:09 | 55.76917 | 38.01351 | 28618 ft | 408 kts | 189° |
| 2026-05-05 17:09 | 55.74167 | 38.00368 | 28926 ft | 402 kts | 204° |
| 2026-05-05 17:10 | 55.71664 | 37.98258 | 29241 ft | 396 kts | 218° |
| 2026-05-05 17:10 | 55.69579 | 37.95125 | 29584 ft | 393 kts | 228° |
| 2026-05-05 17:10 | 55.67641 | 37.91693 | 29900 ft | 395 kts | 226° |
| 2026-05-05 17:10 | 55.65366 | 37.88890 | 30091 ft | 407 kts | 207° |
| 2026-05-05 17:11 | 55.63101 | 37.87603 | 30247 ft | 418 kts | 195° |
| 2026-05-05 17:11 | 55.60143 | 37.87395 | 30291 ft | 434 kts | 179° |
| 2026-05-05 17:11 | 55.54037 | 37.88520 | 30440 ft | 448 kts | 178° |
| 2026-05-05 17:12 | 55.47760 | 37.89680 | 30651 ft | 457 kts | 179° |
| 2026-05-05 17:12 | 55.44593 | 37.90213 | 30941 ft | 457 kts | 179° |
| 2026-05-05 17:12 | 55.41444 | 37.90732 | 31358 ft | 453 kts | 178° |
| 2026-05-05 17:13 | 55.38309 | 37.91941 | 31688 ft | 461 kts | 161° |
| 2026-05-05 17:13 | 55.35542 | 37.94699 | 31993 ft | 466 kts | 149° |
| 2026-05-05 17:13 | 55.32849 | 37.97931 | 32325 ft | 465 kts | 149° |
| 2026-05-05 17:13 | 55.30185 | 38.01164 | 32593 ft | 465 kts | 149° |
| 2026-05-05 17:14 | 55.27523 | 38.04378 | 32924 ft | 462 kts | 149° |
| 2026-05-05 17:14 | 55.24885 | 38.07534 | 33459 ft | 456 kts | 149° |
| 2026-05-05 17:14 | 55.22268 | 38.10633 | 33831 ft | 453 kts | 149° |
| 2026-05-05 17:14 | 55.19649 | 38.13709 | 34020 ft | 454 kts | 149° |
| 2026-05-05 17:15 | 55.17020 | 38.16779 | 34163 ft | 455 kts | 149° |
| 2026-05-05 17:15 | 55.14379 | 38.19854 | 34320 ft | 456 kts | 149° |
| 2026-05-05 17:15 | 55.11738 | 38.22924 | 34521 ft | 456 kts | 149° |
| 2026-05-05 17:15 | 55.09094 | 38.25994 | 34752 ft | 455 kts | 149° |
| 2026-05-05 17:16 | 55.03796 | 38.32133 | 34828 ft | 459 kts | 149° |
| 2026-05-05 17:16 | 54.98481 | 38.38277 | 34833 ft | 456 kts | 149° |
| 2026-05-05 17:17 | 54.93217 | 38.44346 | 34842 ft | 452 kts | 149° |
| 2026-05-05 17:17 | 54.87978 | 38.50362 | 34852 ft | 450 kts | 149° |
| 2026-05-05 17:18 | 54.82756 | 38.56341 | 34849 ft | 449 kts | 149° |
| 2026-05-05 17:18 | 54.77539 | 38.62297 | 34849 ft | 449 kts | 149° |
| 2026-05-05 17:19 | 54.72255 | 38.68058 | 34857 ft | 449 kts | 152° |
| 2026-05-05 17:19 | 54.66867 | 38.73552 | 34857 ft | 450 kts | 152° |
| 2026-05-05 17:20 | 54.61484 | 38.79117 | 34852 ft | 452 kts | 151° |
| 2026-05-05 17:20 | 54.56078 | 38.84720 | 34860 ft | 453 kts | 152° |
| 2026-05-05 17:21 | 54.50662 | 38.90310 | 34862 ft | 454 kts | 151° |
| 2026-05-05 17:22 | 54.42519 | 38.98687 | 34859 ft | 455 kts | 152° |
| 2026-05-05 17:22 | 54.39913 | 39.01780 | 34834 ft | 459 kts | 137° |
| 2026-05-05 17:22 | 54.37919 | 39.06039 | 34872 ft | 461 kts | 120° |
| 2026-05-05 17:23 | 54.35471 | 39.16228 | 34869 ft | 463 kts | 112° |
| 2026-05-05 17:23 | 54.33103 | 39.26482 | 34862 ft | 462 kts | 114° |
| 2026-05-05 17:24 | 54.30619 | 39.36732 | 34860 ft | 462 kts | 114° |
| 2026-05-05 17:24 | 54.28150 | 39.46848 | 34865 ft | 461 kts | 114° |
| 2026-05-05 17:25 | 54.25679 | 39.56953 | 34867 ft | 460 kts | 114° |
| 2026-05-05 17:25 | 54.23207 | 39.67039 | 34864 ft | 459 kts | 114° |
| 2026-05-05 17:26 | 54.20732 | 39.77091 | 34867 ft | 459 kts | 114° |
| 2026-05-05 17:26 | 54.18250 | 39.87127 | 34869 ft | 458 kts | 114° |
| 2026-05-05 17:27 | 54.15760 | 39.97149 | 34867 ft | 458 kts | 114° |
| 2026-05-05 17:27 | 54.13266 | 40.07147 | 34873 ft | 458 kts | 115° |
| 2026-05-05 17:28 | 54.10933 | 40.17234 | 34864 ft | 459 kts | 108° |
| 2026-05-05 17:28 | 54.09138 | 40.27694 | 34865 ft | 460 kts | 107° |
| 2026-05-05 17:29 | 54.07393 | 40.38161 | 34871 ft | 460 kts | 107° |
| 2026-05-05 17:29 | 54.05587 | 40.48614 | 34870 ft | 460 kts | 108° |
| 2026-05-05 17:30 | 54.03746 | 40.59042 | 34875 ft | 460 kts | 108° |
| 2026-05-05 17:30 | 54.01892 | 40.69458 | 34870 ft | 460 kts | 108° |
| 2026-05-05 17:31 | 54.00032 | 40.79867 | 34880 ft | 460 kts | 108° |
| 2026-05-05 17:31 | 53.98166 | 40.90256 | 34875 ft | 459 kts | 108° |
| 2026-05-05 17:32 | 53.96294 | 41.00625 | 34876 ft | 459 kts | 108° |
| 2026-05-05 17:32 | 53.94486 | 41.11006 | 34875 ft | 459 kts | 106° |
| 2026-05-05 17:33 | 53.92810 | 41.21446 | 34876 ft | 458 kts | 106° |
| 2026-05-05 17:33 | 53.91130 | 41.31856 | 34883 ft | 457 kts | 106° |
| 2026-05-05 17:34 | 53.89413 | 41.42301 | 34881 ft | 456 kts | 106° |
| 2026-05-05 17:34 | 53.87695 | 41.52644 | 34876 ft | 456 kts | 107° |
| 2026-05-05 17:35 | 53.85970 | 41.62972 | 34880 ft | 455 kts | 107° |
| 2026-05-05 17:35 | 53.84240 | 41.73282 | 34885 ft | 455 kts | 107° |
| 2026-05-05 17:36 | 53.82488 | 41.83576 | 34887 ft | 455 kts | 107° |
| 2026-05-05 17:36 | 53.80711 | 41.93867 | 34888 ft | 455 kts | 107° |
| 2026-05-05 17:37 | 53.78928 | 42.04145 | 34881 ft | 455 kts | 107° |
| 2026-05-05 17:37 | 53.77140 | 42.14412 | 34892 ft | 456 kts | 107° |
| 2026-05-05 17:38 | 53.75343 | 42.24674 | 34890 ft | 456 kts | 107° |
| 2026-05-05 17:38 | 53.73533 | 42.34953 | 34891 ft | 456 kts | 107° |
| 2026-05-05 17:39 | 53.71718 | 42.45204 | 34894 ft | 456 kts | 107° |
| 2026-05-05 17:39 | 53.69895 | 42.55450 | 34895 ft | 456 kts | 107° |
| 2026-05-05 17:40 | 53.67516 | 42.65268 | 34887 ft | 452 kts | 130° |
| 2026-05-05 17:40 | 53.65316 | 42.69006 | 34897 ft | 449 kts | 145° |
| 2026-05-05 17:40 | 53.62630 | 42.71624 | 34921 ft | 445 kts | 158° |
| 2026-05-05 17:41 | 53.56921 | 42.75672 | 34907 ft | 446 kts | 159° |
| 2026-05-05 17:41 | 53.51184 | 42.79655 | 34900 ft | 447 kts | 159° |
| 2026-05-05 17:42 | 53.45447 | 42.83724 | 34907 ft | 448 kts | 158° |
| 2026-05-05 17:42 | 53.40643 | 42.87164 | 34910 ft | 449 kts | 158° |
| 2026-05-05 17:43 | 53.34899 | 42.91275 | 34911 ft | 449 kts | 158° |
| 2026-05-05 17:43 | 53.29142 | 42.95380 | 34915 ft | 450 kts | 159° |
| 2026-05-05 17:44 | 53.23380 | 42.99475 | 34917 ft | 450 kts | 159° |
| 2026-05-05 17:44 | 53.17616 | 43.03560 | 34919 ft | 450 kts | 158° |
| 2026-05-05 17:45 | 53.11864 | 43.07644 | 34922 ft | 449 kts | 158° |
| 2026-05-05 17:45 | 53.06153 | 43.11875 | 34923 ft | 449 kts | 157° |
| 2026-05-05 17:46 | 53.00466 | 43.16133 | 34924 ft | 448 kts | 157° |
| 2026-05-05 17:46 | 52.94787 | 43.20359 | 34927 ft | 447 kts | 157° |
| 2026-05-05 17:47 | 52.89109 | 43.24555 | 34928 ft | 446 kts | 157° |
| 2026-05-05 17:47 | 52.83439 | 43.28728 | 34929 ft | 446 kts | 157° |
| 2026-05-05 17:48 | 52.77810 | 43.32858 | 34936 ft | 445 kts | 157° |
| 2026-05-05 17:48 | 52.72112 | 43.37027 | 34931 ft | 445 kts | 157° |
| 2026-05-05 17:49 | 52.66492 | 43.41128 | 34933 ft | 445 kts | 157° |
| 2026-05-05 17:49 | 52.60796 | 43.45273 | 34934 ft | 445 kts | 157° |
| 2026-05-05 17:50 | 52.55126 | 43.49386 | 34937 ft | 445 kts | 157° |
| 2026-05-05 17:50 | 52.49447 | 43.53496 | 34941 ft | 446 kts | 157° |
| 2026-05-05 17:51 | 52.43766 | 43.57594 | 34939 ft | 446 kts | 157° |
| 2026-05-05 17:51 | 52.38077 | 43.61687 | 34940 ft | 447 kts | 157° |
| 2026-05-05 17:52 | 52.32381 | 43.65773 | 34944 ft | 447 kts | 157° |
| 2026-05-05 17:52 | 52.26683 | 43.69849 | 34941 ft | 447 kts | 157° |
| 2026-05-05 17:53 | 52.21009 | 43.73897 | 34943 ft | 448 kts | 157° |
| 2026-05-05 17:53 | 52.15266 | 43.77982 | 34954 ft | 448 kts | 157° |
| 2026-05-05 17:54 | 52.09585 | 43.82012 | 34945 ft | 448 kts | 157° |
| 2026-05-05 17:54 | 52.03864 | 43.86059 | 34942 ft | 448 kts | 157° |
| 2026-05-05 17:55 | 51.98144 | 43.90094 | 34946 ft | 448 kts | 157° |
| 2026-05-05 17:55 | 51.92424 | 43.94118 | 34948 ft | 448 kts | 157° |
| 2026-05-05 17:56 | 51.86701 | 43.98132 | 34945 ft | 448 kts | 157° |
| 2026-05-05 17:56 | 51.80977 | 44.02137 | 34944 ft | 448 kts | 157° |
| 2026-05-05 17:57 | 51.75254 | 44.06129 | 34947 ft | 448 kts | 157° |
| 2026-05-05 17:57 | 51.69533 | 44.10109 | 34946 ft | 448 kts | 157° |
| 2026-05-05 17:58 | 51.63809 | 44.14080 | 34948 ft | 448 kts | 157° |
| 2026-05-05 17:58 | 51.58055 | 44.18061 | 35069 ft | 453 kts | 157° |
| 2026-05-05 17:58 | 51.55161 | 44.20059 | 35296 ft | 452 kts | 157° |
| 2026-05-05 17:59 | 51.52279 | 44.22046 | 35547 ft | 450 kts | 157° |
| 2026-05-05 17:59 | 51.49434 | 44.24005 | 35754 ft | 450 kts | 157° |
| 2026-05-05 17:59 | 51.46553 | 44.25986 | 35925 ft | 451 kts | 157° |
| 2026-05-05 17:59 | 51.43636 | 44.27989 | 36114 ft | 451 kts | 157° |
| 2026-05-05 18:00 | 51.40793 | 44.29939 | 36317 ft | 450 kts | 157° |
| 2026-05-05 18:00 | 51.37912 | 44.31911 | 36508 ft | 450 kts | 157° |
| 2026-05-05 18:00 | 51.35037 | 44.33878 | 36679 ft | 450 kts | 157° |
| 2026-05-05 18:00 | 51.32158 | 44.35844 | 36858 ft | 449 kts | 158° |
| 2026-05-05 18:01 | 51.29282 | 44.37806 | 36951 ft | 450 kts | 157° |
| 2026-05-05 18:01 | 51.23501 | 44.41742 | 36956 ft | 451 kts | 157° |
| 2026-05-05 18:02 | 51.17706 | 44.45461 | 36940 ft | 447 kts | 165° |
| 2026-05-05 18:02 | 51.11584 | 44.46673 | 36941 ft | 443 kts | 183° |
| 2026-05-05 18:03 | 51.05453 | 44.46048 | 36954 ft | 441 kts | 184° |
| 2026-05-05 18:03 | 50.99329 | 44.45383 | 36954 ft | 441 kts | 184° |
| 2026-05-05 18:04 | 50.93200 | 44.44771 | 36961 ft | 442 kts | 184° |
| 2026-05-05 18:04 | 50.87048 | 44.44190 | 36967 ft | 444 kts | 183° |
| 2026-05-05 18:05 | 50.80827 | 44.43614 | 36966 ft | 446 kts | 183° |
| 2026-05-05 18:05 | 50.74621 | 44.43041 | 36962 ft | 448 kts | 183° |
| 2026-05-05 18:06 | 50.68386 | 44.42465 | 36962 ft | 449 kts | 183° |
| 2026-05-05 18:06 | 50.62140 | 44.41889 | 36960 ft | 450 kts | 183° |
| 2026-05-05 18:07 | 50.55888 | 44.41314 | 36963 ft | 451 kts | 183° |
| 2026-05-05 18:07 | 50.49618 | 44.40739 | 36959 ft | 451 kts | 183° |
| 2026-05-05 18:08 | 50.43349 | 44.40165 | 36958 ft | 451 kts | 183° |
| 2026-05-05 18:08 | 50.37090 | 44.39594 | 36955 ft | 450 kts | 183° |
| 2026-05-05 18:09 | 50.30857 | 44.39027 | 36960 ft | 449 kts | 183° |
| 2026-05-05 18:09 | 50.24624 | 44.38462 | 36958 ft | 448 kts | 183° |
| 2026-05-05 18:10 | 50.18408 | 44.37899 | 36966 ft | 447 kts | 183° |
| 2026-05-05 18:10 | 50.12198 | 44.37338 | 36956 ft | 447 kts | 183° |
| 2026-05-05 18:11 | 50.05989 | 44.36779 | 36960 ft | 447 kts | 183° |
| 2026-05-05 18:11 | 49.99777 | 44.36221 | 36961 ft | 447 kts | 182° |
| 2026-05-05 18:12 | 49.93560 | 44.35663 | 36965 ft | 448 kts | 182° |
| 2026-05-05 18:12 | 49.87332 | 44.35108 | 36960 ft | 449 kts | 182° |
| 2026-05-05 18:13 | 49.81099 | 44.34553 | 36957 ft | 449 kts | 182° |
| 2026-05-05 18:13 | 49.74853 | 44.33997 | 36960 ft | 450 kts | 182° |
| 2026-05-05 18:14 | 49.68590 | 44.33442 | 36961 ft | 451 kts | 182° |
| 2026-05-05 18:14 | 49.62327 | 44.32888 | 36965 ft | 451 kts | 182° |
| 2026-05-05 18:15 | 49.56085 | 44.33298 | 36963 ft | 449 kts | 167° |
| 2026-05-05 18:15 | 49.50205 | 44.36417 | 36973 ft | 447 kts | 156° |
| 2026-05-05 18:16 | 49.44475 | 44.40175 | 36960 ft | 448 kts | 156° |
| 2026-05-05 18:16 | 49.38733 | 44.43890 | 36959 ft | 448 kts | 156° |
| 2026-05-05 18:17 | 49.32981 | 44.47550 | 36959 ft | 447 kts | 156° |
| 2026-05-05 18:17 | 49.27227 | 44.51184 | 36960 ft | 447 kts | 156° |
| 2026-05-05 18:18 | 49.21483 | 44.54802 | 36958 ft | 446 kts | 156° |
| 2026-05-05 18:18 | 49.15755 | 44.58403 | 36957 ft | 445 kts | 156° |
| 2026-05-05 18:19 | 49.10034 | 44.61992 | 36958 ft | 444 kts | 156° |
| 2026-05-05 18:19 | 49.04322 | 44.65566 | 36957 ft | 444 kts | 156° |
| 2026-05-05 18:20 | 48.98610 | 44.69132 | 36955 ft | 443 kts | 156° |
| 2026-05-05 18:20 | 48.92910 | 44.72681 | 36955 ft | 443 kts | 156° |
| 2026-05-05 18:21 | 48.87204 | 44.76227 | 36961 ft | 443 kts | 156° |
| 2026-05-05 18:21 | 48.82609 | 44.79610 | 36946 ft | 441 kts | 144° |
| 2026-05-05 18:22 | 48.77772 | 44.85280 | 36950 ft | 440 kts | 140° |
| 2026-05-05 18:22 | 48.72985 | 44.91065 | 36949 ft | 441 kts | 140° |
| 2026-05-05 18:23 | 48.68160 | 44.96812 | 36949 ft | 441 kts | 141° |
| 2026-05-05 18:23 | 48.63316 | 45.02529 | 36949 ft | 442 kts | 141° |
| 2026-05-05 18:24 | 48.58430 | 45.08274 | 36946 ft | 443 kts | 141° |
| 2026-05-05 18:24 | 48.53566 | 45.13981 | 36946 ft | 443 kts | 141° |
| 2026-05-05 18:25 | 48.48694 | 45.19686 | 36947 ft | 444 kts | 141° |
| 2026-05-05 18:25 | 48.43816 | 45.25385 | 36947 ft | 444 kts | 141° |
| 2026-05-05 18:26 | 48.38795 | 45.30786 | 36932 ft | 446 kts | 151° |
| 2026-05-05 18:26 | 48.33221 | 45.34887 | 36943 ft | 446 kts | 153° |
| 2026-05-05 18:27 | 48.27625 | 45.38894 | 36943 ft | 446 kts | 153° |
| 2026-05-05 18:27 | 48.22041 | 45.42939 | 36947 ft | 446 kts | 153° |
| 2026-05-05 18:28 | 48.13691 | 45.49033 | 36942 ft | 445 kts | 152° |
| 2026-05-05 18:28 | 48.08121 | 45.53094 | 36945 ft | 445 kts | 153° |
| 2026-05-05 18:29 | 48.02550 | 45.57144 | 36945 ft | 445 kts | 153° |
| 2026-05-05 18:29 | 47.96974 | 45.61187 | 36945 ft | 445 kts | 153° |
| 2026-05-05 18:30 | 47.91403 | 45.65216 | 36944 ft | 445 kts | 153° |
| 2026-05-05 18:30 | 47.85828 | 45.69239 | 36951 ft | 445 kts | 153° |
| 2026-05-05 18:31 | 47.80253 | 45.73253 | 36942 ft | 445 kts | 153° |
| 2026-05-05 18:31 | 47.74672 | 45.77260 | 36949 ft | 445 kts | 153° |
| 2026-05-05 18:32 | 47.69091 | 45.81258 | 36942 ft | 445 kts | 153° |
| 2026-05-05 18:32 | 47.63508 | 45.85249 | 36946 ft | 445 kts | 153° |
| 2026-05-05 18:33 | 47.57921 | 45.89232 | 36939 ft | 446 kts | 153° |
| 2026-05-05 18:33 | 47.52335 | 45.93206 | 36940 ft | 446 kts | 153° |
| 2026-05-05 18:34 | 47.46744 | 45.97175 | 36940 ft | 446 kts | 153° |
| 2026-05-05 18:34 | 47.41153 | 46.01135 | 36940 ft | 446 kts | 153° |
| 2026-05-05 18:35 | 47.35563 | 46.05084 | 36937 ft | 446 kts | 153° |
| 2026-05-05 18:35 | 47.29973 | 46.09030 | 36937 ft | 446 kts | 153° |
| 2026-05-05 18:36 | 47.24380 | 46.12972 | 36942 ft | 446 kts | 154° |
| 2026-05-05 18:36 | 47.18781 | 46.16908 | 36937 ft | 446 kts | 154° |
| 2026-05-05 18:37 | 47.13186 | 46.20834 | 36937 ft | 446 kts | 154° |
| 2026-05-05 18:37 | 47.07632 | 46.24875 | 36929 ft | 445 kts | 147° |
| 2026-05-05 18:38 | 47.03014 | 46.30854 | 36933 ft | 444 kts | 129° |
| 2026-05-05 18:38 | 46.99606 | 46.38396 | 36931 ft | 445 kts | 122° |
| 2026-05-05 18:39 | 46.96341 | 46.46090 | 36933 ft | 445 kts | 122° |
| 2026-05-05 18:39 | 46.93059 | 46.53706 | 36929 ft | 446 kts | 123° |
| 2026-05-05 18:40 | 46.89724 | 46.61355 | 36929 ft | 446 kts | 123° |
| 2026-05-05 18:40 | 46.86374 | 46.68995 | 36930 ft | 447 kts | 123° |
| 2026-05-05 18:41 | 46.83017 | 46.76633 | 36920 ft | 447 kts | 123° |
| 2026-05-05 18:41 | 46.79651 | 46.84275 | 36921 ft | 448 kts | 123° |
| 2026-05-05 18:42 | 46.76279 | 46.91909 | 36910 ft | 448 kts | 124° |
| 2026-05-05 18:42 | 46.72902 | 46.99537 | 36908 ft | 448 kts | 124° |
| 2026-05-05 18:43 | 46.69515 | 47.07163 | 36914 ft | 448 kts | 124° |
| 2026-05-05 18:43 | 46.66160 | 47.14814 | 36910 ft | 448 kts | 123° |
| 2026-05-05 18:44 | 46.62829 | 47.22474 | 36896 ft | 448 kts | 123° |
| 2026-05-05 18:44 | 46.59488 | 47.30132 | 36903 ft | 448 kts | 124° |
| 2026-05-05 18:45 | 46.56140 | 47.37770 | 36900 ft | 448 kts | 124° |
| 2026-05-05 18:45 | 46.52785 | 47.45397 | 36898 ft | 448 kts | 124° |
| 2026-05-05 18:46 | 46.49423 | 47.53019 | 36891 ft | 448 kts | 124° |
| 2026-05-05 18:46 | 46.46057 | 47.60629 | 36896 ft | 448 kts | 124° |
| 2026-05-05 18:47 | 46.42687 | 47.68231 | 36897 ft | 448 kts | 124° |
| 2026-05-05 18:47 | 46.39312 | 47.75821 | 36892 ft | 449 kts | 124° |
| 2026-05-05 18:48 | 46.35926 | 47.83417 | 36881 ft | 449 kts | 125° |
| 2026-05-05 18:48 | 46.32538 | 47.91002 | 36873 ft | 449 kts | 125° |
| 2026-05-05 18:49 | 46.29182 | 47.98621 | 36882 ft | 450 kts | 120° |
| 2026-05-05 18:49 | 46.27019 | 48.07141 | 36887 ft | 455 kts | 105° |
| 2026-05-05 18:50 | 46.25722 | 48.16105 | 36880 ft | 456 kts | 104° |
| 2026-05-05 18:50 | 46.24414 | 48.25075 | 36878 ft | 456 kts | 105° |
| 2026-05-05 18:51 | 46.23048 | 48.34036 | 36882 ft | 457 kts | 105° |
| 2026-05-05 18:51 | 46.21664 | 48.42988 | 36879 ft | 457 kts | 105° |
| 2026-05-05 18:52 | 46.20263 | 48.51927 | 36874 ft | 457 kts | 108° |
| 2026-05-05 18:52 | 46.18997 | 48.56069 | 36868 ft | 449 kts | 128° |
| 2026-05-05 18:52 | 46.16930 | 48.59381 | 36871 ft | 443 kts | 143° |
| 2026-05-05 18:53 | 46.14394 | 48.61839 | 36872 ft | 438 kts | 157° |
| 2026-05-05 18:53 | 46.11545 | 48.63322 | 36885 ft | 435 kts | 165° |
| 2026-05-05 18:53 | 46.05701 | 48.65621 | 36878 ft | 436 kts | 167° |
| 2026-05-05 18:54 | 45.99833 | 48.67867 | 36880 ft | 437 kts | 166° |
| 2026-05-05 18:54 | 45.93962 | 48.70172 | 36882 ft | 438 kts | 166° |
| 2026-05-05 18:55 | 45.88085 | 48.72516 | 36886 ft | 439 kts | 166° |
| 2026-05-05 18:55 | 45.82195 | 48.74871 | 36885 ft | 440 kts | 166° |
| 2026-05-05 18:56 | 45.76301 | 48.77225 | 36887 ft | 440 kts | 166° |
| 2026-05-05 18:56 | 45.70399 | 48.79575 | 36888 ft | 440 kts | 166° |
| 2026-05-05 18:57 | 45.64506 | 48.81915 | 36892 ft | 440 kts | 166° |
| 2026-05-05 18:57 | 45.58612 | 48.84251 | 36895 ft | 439 kts | 166° |
| 2026-05-05 18:58 | 45.52725 | 48.86578 | 36894 ft | 439 kts | 166° |
| 2026-05-05 18:58 | 45.46887 | 48.88883 | 36898 ft | 438 kts | 167° |
| 2026-05-05 18:59 | 45.40981 | 48.91207 | 36898 ft | 437 kts | 167° |
| 2026-05-05 18:59 | 45.35157 | 48.93495 | 36903 ft | 437 kts | 167° |
| 2026-05-05 19:00 | 45.29268 | 48.95803 | 36905 ft | 436 kts | 167° |
| 2026-05-05 19:00 | 45.23424 | 48.98086 | 36904 ft | 435 kts | 167° |
| 2026-05-05 19:01 | 45.17586 | 49.00367 | 36904 ft | 435 kts | 167° |
| 2026-05-05 19:01 | 45.11758 | 49.02638 | 36914 ft | 434 kts | 167° |
| 2026-05-05 19:02 | 45.06918 | 49.04519 | 36903 ft | 434 kts | 168° |
| 2026-05-05 19:02 | 45.01094 | 49.06778 | 36916 ft | 434 kts | 168° |
| 2026-05-05 19:03 | 44.94335 | 49.09395 | 36922 ft | 433 kts | 168° |
| 2026-05-05 19:03 | 44.88527 | 49.11638 | 36921 ft | 433 kts | 168° |
| 2026-05-05 19:04 | 44.83669 | 49.13511 | 36911 ft | 432 kts | 168° |
| 2026-05-05 19:04 | 44.77878 | 49.15740 | 36919 ft | 431 kts | 169° |
| 2026-05-05 19:05 | 44.72101 | 49.17957 | 36934 ft | 430 kts | 168° |
| 2026-05-05 19:05 | 44.66329 | 49.20169 | 36928 ft | 430 kts | 168° |
| 2026-05-05 19:06 | 44.60570 | 49.22368 | 36928 ft | 428 kts | 169° |
| 2026-05-05 19:06 | 44.54826 | 49.24561 | 36932 ft | 427 kts | 169° |
| 2026-05-05 19:07 | 44.49096 | 49.26745 | 36938 ft | 426 kts | 169° |
| 2026-05-05 19:07 | 44.43379 | 49.28918 | 36939 ft | 425 kts | 169° |
| 2026-05-05 19:08 | 44.37676 | 49.31082 | 36934 ft | 424 kts | 169° |
| 2026-05-05 19:08 | 44.31987 | 49.33234 | 36945 ft | 423 kts | 169° |
| 2026-05-05 19:09 | 44.26305 | 49.35380 | 36948 ft | 423 kts | 169° |
| 2026-05-05 19:09 | 44.20626 | 49.37521 | 36932 ft | 423 kts | 170° |
| 2026-05-05 19:10 | 44.14953 | 49.39655 | 36947 ft | 422 kts | 170° |
| 2026-05-05 19:10 | 44.09287 | 49.41783 | 36950 ft | 421 kts | 170° |
| 2026-05-05 19:11 | 44.03626 | 49.43906 | 36950 ft | 421 kts | 170° |
| 2026-05-05 19:11 | 43.97962 | 49.45977 | 36941 ft | 418 kts | 175° |
| 2026-05-05 19:12 | 43.95117 | 49.46075 | 36959 ft | 406 kts | 192° |
| 2026-05-05 19:12 | 43.92401 | 49.45092 | 36689 ft | 403 kts | 205° |
| 2026-05-05 19:12 | 43.89965 | 49.43224 | 36465 ft | 399 kts | 217° |
| 2026-05-05 19:12 | 43.87939 | 49.40629 | 36210 ft | 396 kts | 229° |
| 2026-05-05 19:13 | 43.86371 | 49.37493 | 36034 ft | 398 kts | 239° |
| 2026-05-05 19:13 | 43.85344 | 49.33955 | 35984 ft | 406 kts | 252° |
| 2026-05-05 19:13 | 43.84315 | 49.26093 | 35965 ft | 412 kts | 256° |
| 2026-05-05 19:14 | 43.83457 | 49.18241 | 35956 ft | 412 kts | 256° |
| 2026-05-05 19:14 | 43.82553 | 49.10408 | 35960 ft | 412 kts | 256° |
| 2026-05-05 19:15 | 43.81610 | 49.02587 | 35965 ft | 412 kts | 255° |
| 2026-05-05 19:15 | 43.80651 | 48.94775 | 35976 ft | 412 kts | 256° |
| 2026-05-05 19:16 | 43.79684 | 48.86951 | 35970 ft | 413 kts | 256° |
| 2026-05-05 19:16 | 43.78710 | 48.79112 | 35979 ft | 414 kts | 256° |
| 2026-05-05 19:17 | 43.77729 | 48.71249 | 35977 ft | 415 kts | 256° |
| 2026-05-05 19:17 | 43.76740 | 48.63360 | 35974 ft | 417 kts | 256° |
| 2026-05-05 19:18 | 43.75742 | 48.55460 | 35976 ft | 418 kts | 256° |
| 2026-05-05 19:18 | 43.74730 | 48.47544 | 35976 ft | 418 kts | 255° |
| 2026-05-05 19:19 | 43.73710 | 48.39614 | 35984 ft | 419 kts | 255° |
| 2026-05-05 19:19 | 43.72685 | 48.31684 | 35981 ft | 419 kts | 255° |
| 2026-05-05 19:20 | 43.71655 | 48.23751 | 35980 ft | 419 kts | 255° |
| 2026-05-05 19:20 | 43.70618 | 48.15815 | 35986 ft | 420 kts | 256° |
| 2026-05-05 19:21 | 43.69576 | 48.07875 | 35984 ft | 420 kts | 256° |
| 2026-05-05 19:21 | 43.68527 | 47.99933 | 35992 ft | 421 kts | 256° |
| 2026-05-05 19:22 | 43.67471 | 47.91982 | 35989 ft | 421 kts | 255° |
| 2026-05-05 19:22 | 43.66408 | 47.84024 | 35987 ft | 422 kts | 255° |
| 2026-05-05 19:23 | 43.65336 | 47.76043 | 35987 ft | 422 kts | 255° |
| 2026-05-05 19:23 | 43.64259 | 47.68060 | 35986 ft | 423 kts | 255° |
| 2026-05-05 19:24 | 43.63176 | 47.60081 | 35985 ft | 423 kts | 255° |
| 2026-05-05 19:24 | 43.62087 | 47.52094 | 35992 ft | 424 kts | 255° |
| 2026-05-05 19:25 | 43.61219 | 47.44025 | 36010 ft | 426 kts | 260° |
| 2026-05-05 19:25 | 43.60584 | 47.35875 | 36001 ft | 428 kts | 260° |
| 2026-05-05 19:26 | 43.59949 | 47.27703 | 35995 ft | 429 kts | 260° |
| 2026-05-05 19:26 | 43.59281 | 47.19518 | 35992 ft | 430 kts | 260° |
| 2026-05-05 19:27 | 43.58592 | 47.11312 | 35996 ft | 431 kts | 260° |
| 2026-05-05 19:27 | 43.57893 | 47.03092 | 35996 ft | 432 kts | 260° |
| 2026-05-05 19:28 | 43.57188 | 46.94866 | 35995 ft | 432 kts | 260° |
| 2026-05-05 19:28 | 43.56476 | 46.86637 | 35993 ft | 432 kts | 260° |
| 2026-05-05 19:29 | 43.55758 | 46.78402 | 36008 ft | 433 kts | 260° |
| 2026-05-05 19:29 | 43.55034 | 46.70161 | 36008 ft | 433 kts | 260° |
| 2026-05-05 19:30 | 43.54303 | 46.61913 | 36004 ft | 434 kts | 260° |
| 2026-05-05 19:30 | 43.53565 | 46.53650 | 36004 ft | 434 kts | 260° |
| 2026-05-05 19:31 | 43.52820 | 46.45385 | 35999 ft | 435 kts | 260° |
| 2026-05-05 19:31 | 43.52068 | 46.37108 | 36002 ft | 435 kts | 260° |
| 2026-05-05 19:32 | 43.51309 | 46.28826 | 36002 ft | 436 kts | 260° |
| 2026-05-05 19:32 | 43.50546 | 46.20554 | 36006 ft | 436 kts | 260° |
| 2026-05-05 19:33 | 43.49777 | 46.12277 | 36009 ft | 436 kts | 260° |
| 2026-05-05 19:33 | 43.49093 | 46.03973 | 36001 ft | 438 kts | 266° |
| 2026-05-05 19:34 | 43.49600 | 45.95580 | 36003 ft | 441 kts | 274° |
| 2026-05-05 19:35 | 43.50721 | 45.82995 | 36025 ft | 442 kts | 274° |
| 2026-05-05 19:35 | 43.51430 | 45.74580 | 36019 ft | 442 kts | 274° |
| 2026-05-05 19:36 | 43.52116 | 45.66153 | 36024 ft | 443 kts | 274° |
| 2026-05-05 19:36 | 43.52792 | 45.57709 | 36020 ft | 443 kts | 274° |
| 2026-05-05 19:37 | 43.53463 | 45.49266 | 36020 ft | 444 kts | 274° |
| 2026-05-05 19:37 | 43.54019 | 45.42205 | 36017 ft | 444 kts | 274° |
| 2026-05-05 19:38 | 43.54680 | 45.33742 | 36018 ft | 444 kts | 274° |
| 2026-05-05 19:38 | 43.55336 | 45.25269 | 36016 ft | 444 kts | 274° |
| 2026-05-05 19:39 | 43.56089 | 45.15432 | 36022 ft | 445 kts | 274° |
| 2026-05-05 19:39 | 43.56628 | 45.08323 | 36028 ft | 445 kts | 274° |
| 2026-05-05 19:40 | 43.58420 | 44.84268 | 36022 ft | 446 kts | 274° |
| 2026-05-05 19:40 | 43.60870 | 44.50161 | 36023 ft | 447 kts | 274° |
| 2026-05-05 19:41 | 43.63222 | 44.15970 | 36009 ft | 448 kts | 274° |
| 2026-05-05 19:41 | 43.64331 | 43.81646 | 36007 ft | 448 kts | 270° |
| 2026-05-05 19:42 | 43.65225 | 43.47239 | 35989 ft | 449 kts | 270° |
| 2026-05-05 19:42 | 43.66670 | 42.82232 | 35972 ft | 451 kts | 270° |
| 2026-05-05 19:43 | 43.67448 | 42.36159 | 36006 ft | 452 kts | 269° |
| 2026-05-05 19:43 | 43.67565 | 42.27462 | 36003 ft | 453 kts | 269° |
| 2026-05-05 19:44 | 43.67680 | 42.18751 | 35994 ft | 454 kts | 269° |
| 2026-05-05 19:44 | 43.67792 | 42.10089 | 36005 ft | 454 kts | 269° |
| 2026-05-05 19:45 | 43.67901 | 42.01299 | 36008 ft | 455 kts | 269° |
| 2026-05-05 19:45 | 43.68003 | 41.92547 | 36014 ft | 456 kts | 269° |
| 2026-05-05 19:46 | 43.68098 | 41.83852 | 36013 ft | 456 kts | 269° |
| 2026-05-05 19:46 | 43.68186 | 41.75082 | 36003 ft | 456 kts | 269° |
| 2026-05-05 19:47 | 43.68267 | 41.66262 | 35999 ft | 456 kts | 269° |
| 2026-05-05 19:47 | 43.68305 | 41.61870 | 35782 ft | 460 kts | 269° |
| 2026-05-05 19:47 | 43.68343 | 41.57433 | 35362 ft | 460 kts | 269° |
| 2026-05-05 19:47 | 43.68379 | 41.53042 | 34915 ft | 456 kts | 269° |
| 2026-05-05 19:48 | 43.68413 | 41.48683 | 34488 ft | 452 kts | 269° |
| 2026-05-05 19:48 | 43.68445 | 41.44356 | 34049 ft | 449 kts | 268° |
| 2026-05-05 19:48 | 43.68474 | 41.40051 | 33540 ft | 447 kts | 268° |
| 2026-05-05 19:48 | 43.68502 | 41.35775 | 33091 ft | 443 kts | 268° |
| 2026-05-05 19:49 | 43.68528 | 41.31542 | 32647 ft | 439 kts | 268° |
| 2026-05-05 19:49 | 43.68552 | 41.27395 | 32252 ft | 435 kts | 268° |
| 2026-05-05 19:49 | 43.68574 | 41.23241 | 31832 ft | 431 kts | 268° |
| 2026-05-05 19:49 | 43.68595 | 41.19116 | 31432 ft | 427 kts | 268° |
| 2026-05-05 19:50 | 43.68614 | 41.15025 | 31024 ft | 424 kts | 267° |
| 2026-05-05 19:50 | 43.68631 | 41.10964 | 30612 ft | 421 kts | 267° |
| 2026-05-05 19:50 | 43.68647 | 41.06941 | 30223 ft | 417 kts | 267° |
| 2026-05-05 19:50 | 43.68661 | 41.02944 | 29778 ft | 414 kts | 267° |
| 2026-05-05 19:51 | 43.68674 | 40.98986 | 29334 ft | 410 kts | 267° |
| 2026-05-05 19:51 | 43.68686 | 40.95069 | 28914 ft | 406 kts | 268° |
| 2026-05-05 19:51 | 43.68696 | 40.91200 | 28511 ft | 401 kts | 267° |
| 2026-05-05 19:51 | 43.68706 | 40.87359 | 28108 ft | 398 kts | 268° |
| 2026-05-05 19:52 | 43.68720 | 40.83555 | 27694 ft | 395 kts | 268° |
| 2026-05-05 19:52 | 43.68736 | 40.79786 | 27299 ft | 391 kts | 268° |
| 2026-05-05 19:52 | 43.68751 | 40.76049 | 26894 ft | 387 kts | 268° |
| 2026-05-05 19:52 | 43.68767 | 40.72345 | 26549 ft | 384 kts | 268° |
| 2026-05-05 19:53 | 43.68784 | 40.68648 | 26134 ft | 381 kts | 267° |
| 2026-05-05 19:53 | 43.68791 | 40.64951 | 25734 ft | 378 kts | 267° |
| 2026-05-05 19:53 | 43.68797 | 40.61335 | 25371 ft | 375 kts | 267° |
| 2026-05-05 19:53 | 43.68803 | 40.57741 | 24982 ft | 373 kts | 267° |
| 2026-05-05 19:54 | 43.68809 | 40.54165 | 24608 ft | 371 kts | 267° |
| 2026-05-05 19:54 | 43.68815 | 40.50620 | 24246 ft | 369 kts | 268° |
| 2026-05-05 19:54 | 43.68818 | 40.47082 | 23884 ft | 367 kts | 268° |
| 2026-05-05 19:54 | 43.68822 | 40.43562 | 23482 ft | 366 kts | 268° |
| 2026-05-05 19:55 | 43.68824 | 40.40101 | 23058 ft | 364 kts | 268° |
| 2026-05-05 19:55 | 43.68825 | 40.36565 | 22645 ft | 362 kts | 268° |
| 2026-05-05 19:55 | 43.68825 | 40.33143 | 22279 ft | 360 kts | 268° |
| 2026-05-05 19:55 | 43.68824 | 40.29697 | 21901 ft | 358 kts | 268° |
| 2026-05-05 19:56 | 43.68822 | 40.26273 | 21545 ft | 355 kts | 268° |
| 2026-05-05 19:56 | 43.68820 | 40.22880 | 21182 ft | 353 kts | 268° |
| 2026-05-05 19:56 | 43.68816 | 40.19505 | 20831 ft | 351 kts | 268° |
| 2026-05-05 19:56 | 43.68803 | 40.16145 | 20468 ft | 348 kts | 265° |
| 2026-05-05 19:57 | 43.68283 | 40.12939 | 20085 ft | 340 kts | 241° |
| 2026-05-05 19:57 | 43.67437 | 40.11100 | 19893 ft | 333 kts | 227° |
| 2026-05-05 19:57 | 43.65113 | 40.08484 | 19554 ft | 326 kts | 205° |
| 2026-05-05 19:57 | 43.63038 | 40.07146 | 19314 ft | 334 kts | 201° |
| 2026-05-05 19:58 | 43.60899 | 40.05841 | 19029 ft | 338 kts | 201° |
| 2026-05-05 19:58 | 43.58751 | 40.04515 | 18741 ft | 337 kts | 202° |
| 2026-05-05 19:58 | 43.56614 | 40.03189 | 18455 ft | 336 kts | 202° |
| 2026-05-05 19:58 | 43.54494 | 40.01867 | 18156 ft | 334 kts | 202° |
| 2026-05-05 19:59 | 43.52378 | 40.00544 | 17845 ft | 333 kts | 202° |
| 2026-05-05 19:59 | 43.50276 | 39.99229 | 17546 ft | 331 kts | 202° |
| 2026-05-05 19:59 | 43.48188 | 39.97924 | 17279 ft | 329 kts | 202° |
| 2026-05-05 19:59 | 43.46108 | 39.96626 | 16999 ft | 327 kts | 202° |
| 2026-05-05 20:00 | 43.44010 | 39.95440 | 16718 ft | 325 kts | 198° |
| 2026-05-05 20:00 | 43.41875 | 39.94445 | 16452 ft | 323 kts | 196° |
| 2026-05-05 20:00 | 43.39743 | 39.93507 | 16192 ft | 322 kts | 196° |
| 2026-05-05 20:00 | 43.37613 | 39.92574 | 15925 ft | 321 kts | 196° |
| 2026-05-05 20:01 | 43.35492 | 39.91636 | 15662 ft | 320 kts | 197° |
| 2026-05-05 20:01 | 43.33380 | 39.90693 | 15392 ft | 319 kts | 197° |
| 2026-05-05 20:01 | 43.31273 | 39.89745 | 15141 ft | 318 kts | 197° |
| 2026-05-05 20:01 | 43.29170 | 39.88795 | 14872 ft | 317 kts | 197° |
| 2026-05-05 20:02 | 43.27077 | 39.87847 | 14607 ft | 317 kts | 197° |
| 2026-05-05 20:02 | 43.24960 | 39.86888 | 14341 ft | 316 kts | 197° |
| 2026-05-05 20:02 | 43.22874 | 39.85942 | 14076 ft | 315 kts | 198° |
| 2026-05-05 20:02 | 43.20790 | 39.84998 | 13807 ft | 315 kts | 198° |
| 2026-05-05 20:03 | 43.18715 | 39.84058 | 13514 ft | 314 kts | 198° |
| 2026-05-05 20:03 | 43.16657 | 39.83056 | 13281 ft | 312 kts | 206° |
| 2026-05-05 20:03 | 43.15078 | 39.81163 | 13116 ft | 299 kts | 238° |
| 2026-05-05 20:03 | 43.14490 | 39.78504 | 12731 ft | 294 kts | 270° |
| 2026-05-05 20:04 | 43.15043 | 39.75860 | 12252 ft | 292 kts | 304° |
| 2026-05-05 20:04 | 43.16542 | 39.74035 | 11771 ft | 290 kts | 331° |
| 2026-05-05 20:04 | 43.18365 | 39.72927 | 11322 ft | 287 kts | 345° |
| 2026-05-05 20:04 | 43.20309 | 39.72339 | 10848 ft | 285 kts | 349° |
| 2026-05-05 20:05 | 43.22257 | 39.71828 | 10388 ft | 284 kts | 349° |
| 2026-05-05 20:05 | 43.24197 | 39.71307 | 9936 ft | 283 kts | 349° |
| 2026-05-05 20:05 | 43.26112 | 39.70767 | 9463 ft | 281 kts | 348° |
| 2026-05-05 20:05 | 43.28040 | 39.70206 | 8842 ft | 284 kts | 348° |
| 2026-05-05 20:06 | 43.29968 | 39.69636 | 8302 ft | 283 kts | 348° |
| 2026-05-05 20:06 | 43.31889 | 39.69065 | 7844 ft | 281 kts | 348° |
| 2026-05-05 20:06 | 43.33804 | 39.68857 | 7389 ft | 276 kts | 12° |
| 2026-05-05 20:06 | 43.35431 | 39.70030 | 7288 ft | 258 kts | 43° |
| 2026-05-05 20:07 | 43.36573 | 39.71794 | 7188 ft | 244 kts | 54° |
| 2026-05-05 20:07 | 43.37474 | 39.73694 | 7071 ft | 231 kts | 59° |
| 2026-05-05 20:07 | 43.38228 | 39.75650 | 6840 ft | 223 kts | 63° |
| 2026-05-05 20:07 | 43.38849 | 39.77488 | 6767 ft | 207 kts | 65° |
| 2026-05-05 20:08 | 43.39426 | 39.79211 | 6651 ft | 191 kts | 64° |
| 2026-05-05 20:08 | 43.39972 | 39.80828 | 6399 ft | 184 kts | 64° |
| 2026-05-05 20:08 | 43.40513 | 39.82425 | 6044 ft | 184 kts | 64° |
| 2026-05-05 20:08 | 43.41050 | 39.84010 | 5752 ft | 182 kts | 65° |
| 2026-05-05 20:09 | 43.41584 | 39.85589 | 5448 ft | 182 kts | 65° |
| 2026-05-05 20:09 | 43.42130 | 39.87190 | 5184 ft | 180 kts | 65° |
| 2026-05-05 20:09 | 43.42644 | 39.88766 | 5088 ft | 183 kts | 72° |
| 2026-05-05 20:09 | 43.42865 | 39.90621 | 5327 ft | 213 kts | 91° |
| 2026-05-05 20:10 | 43.42393 | 39.92609 | 5245 ft | 224 kts | 132° |
| 2026-05-05 20:10 | 43.41051 | 39.93677 | 5247 ft | 238 kts | 172° |
| 2026-05-05 20:10 | 43.39361 | 39.93312 | 5240 ft | 257 kts | 207° |
| 2026-05-05 20:10 | 43.37749 | 39.92103 | 5228 ft | 263 kts | 201° |
| 2026-05-05 20:11 | 43.36022 | 39.91472 | 5237 ft | 259 kts | 190° |
| 2026-05-05 20:11 | 43.34235 | 39.90832 | 5336 ft | 268 kts | 197° |
| 2026-05-05 20:11 | 43.32456 | 39.90035 | 6099 ft | 274 kts | 199° |
| 2026-05-05 20:11 | 43.30629 | 39.89188 | 7001 ft | 275 kts | 201° |
| 2026-05-05 20:12 | 43.28959 | 39.87885 | 7245 ft | 287 kts | 220° |
| 2026-05-05 20:12 | 43.27343 | 39.86318 | 7145 ft | 282 kts | 203° |
| 2026-05-05 20:12 | 43.25515 | 39.85528 | 7090 ft | 270 kts | 195° |
| 2026-05-05 20:12 | 43.23744 | 39.84869 | 7164 ft | 259 kts | 195° |
| 2026-05-05 20:13 | 43.22036 | 39.84230 | 7287 ft | 253 kts | 195° |
| 2026-05-05 20:13 | 43.20302 | 39.83581 | 7549 ft | 263 kts | 195° |
| 2026-05-05 20:13 | 43.18543 | 39.82918 | 8398 ft | 261 kts | 195° |
| 2026-05-05 20:13 | 43.16791 | 39.82253 | 9254 ft | 261 kts | 195° |
| 2026-05-05 20:14 | 43.15033 | 39.81578 | 9782 ft | 263 kts | 195° |
| 2026-05-05 20:14 | 43.13269 | 39.80892 | 9996 ft | 265 kts | 195° |
| 2026-05-05 20:14 | 43.11476 | 39.80180 | 10006 ft | 273 kts | 195° |
| 2026-05-05 20:14 | 43.09632 | 39.79438 | 10010 ft | 278 kts | 195° |
| 2026-05-05 20:15 | 43.07783 | 39.78694 | 10000 ft | 276 kts | 195° |
| 2026-05-05 20:15 | 43.06039 | 39.77668 | 9896 ft | 275 kts | 218° |
| 2026-05-05 20:15 | 43.04923 | 39.75599 | 9481 ft | 274 kts | 251° |
| 2026-05-05 20:15 | 43.04836 | 39.72984 | 8889 ft | 276 kts | 287° |
| 2026-05-05 20:16 | 43.05645 | 39.70676 | 8463 ft | 273 kts | 306° |
| 2026-05-05 20:16 | 43.06978 | 39.68871 | 7993 ft | 270 kts | 329° |
| 2026-05-05 20:16 | 43.08114 | 39.68141 | 7700 ft | 267 kts | 346° |
| 2026-05-05 20:16 | 43.09921 | 39.68167 | 7263 ft | 261 kts | 20° |
| 2026-05-05 20:17 | 43.11913 | 39.69932 | 6677 ft | 259 kts | 37° |
| 2026-05-05 20:17 | 43.13349 | 39.71419 | 6192 ft | 259 kts | 35° |
| 2026-05-05 20:17 | 43.14836 | 39.72773 | 5807 ft | 254 kts | 31° |
| 2026-05-05 20:17 | 43.16335 | 39.73978 | 5727 ft | 251 kts | 29° |
| 2026-05-05 20:18 | 43.17356 | 39.74761 | 5565 ft | 246 kts | 29° |
| 2026-05-05 20:18 | 43.18835 | 39.75881 | 5241 ft | 238 kts | 29° |
| 2026-05-05 20:18 | 43.20242 | 39.76942 | 4958 ft | 231 kts | 30° |
| 2026-05-05 20:18 | 43.21658 | 39.78011 | 4665 ft | 227 kts | 30° |
| 2026-05-05 20:19 | 43.23020 | 39.79039 | 4367 ft | 219 kts | 30° |
| 2026-05-05 20:19 | 43.24339 | 39.80036 | 4103 ft | 214 kts | 30° |
| 2026-05-05 20:19 | 43.25627 | 39.81008 | 3847 ft | 209 kts | 30° |
| 2026-05-05 20:19 | 43.26889 | 39.81962 | 3565 ft | 205 kts | 30° |
| 2026-05-05 20:20 | 43.28122 | 39.82893 | 3308 ft | 200 kts | 30° |
| 2026-05-05 20:20 | 43.29330 | 39.83806 | 3055 ft | 196 kts | 30° |
| 2026-05-05 20:20 | 43.30511 | 39.84698 | 2822 ft | 192 kts | 29° |
| 2026-05-05 20:20 | 43.31665 | 39.85570 | 2586 ft | 186 kts | 29° |
| 2026-05-05 20:21 | 43.32785 | 39.86415 | 2336 ft | 181 kts | 29° |
| 2026-05-05 20:21 | 43.33874 | 39.87238 | 2103 ft | 176 kts | 28° |
| 2026-05-05 20:21 | 43.34914 | 39.88023 | 1893 ft | 169 kts | 29° |
| 2026-05-05 20:21 | 43.35914 | 39.88777 | 1670 ft | 158 kts | 29° |
| 2026-05-05 20:22 | 43.36869 | 39.89498 | 1488 ft | 158 kts | 28° |
| 2026-05-05 20:22 | 43.37825 | 39.90221 | 1265 ft | 156 kts | 28° |
| 2026-05-05 20:22 | 43.38765 | 39.90930 | 1061 ft | 152 kts | 27° |
| 2026-05-05 20:22 | 43.39692 | 39.91628 | 897 ft | 152 kts | 28° |
| 2026-05-05 20:23 | 43.40615 | 39.92343 | 779 ft | 153 kts | 27° |
| 2026-05-05 20:23 | 43.41563 | 39.93043 | 557 ft | 155 kts | 28° |
| 2026-05-05 20:23 | 43.42499 | 39.93764 | 338 ft | 152 kts | 27° |
| 2026-05-05 20:23 | 43.43420 | 39.94445 | 120 ft | 146 kts | 28° |
| 2026-05-05 20:24 | 43.44242 | 39.95070 | 74 ft | 118 kts | 28° |
| 2026-05-05 20:24 | 43.44834 | 39.95513 | 88 ft | 76 kts | 29° |
| 2026-05-05 20:24 | 43.45169 | 39.95764 | 89 ft | 34 kts | 29° |
| 2026-05-05 20:24 | 43.45286 | 39.95831 | 94 ft | 8 kts | 332° |
| 2026-05-05 20:25 | 43.45283 | 39.95774 | 92 ft | 7 kts | 243° |
| 2026-05-05 20:25 | 43.45255 | 39.95710 | 91 ft | 9 kts | 239° |
| 2026-05-05 20:25 | 43.45226 | 39.95639 | 91 ft | 8 kts | 241° |
| 2026-05-05 20:25 | 43.45194 | 39.95573 | 93 ft | 8 kts | 237° |
| 2026-05-05 20:26 | 43.45160 | 39.95503 | 93 ft | 10 kts | 236° |
| 2026-05-05 20:26 | 43.45114 | 39.95409 | 90 ft | 14 kts | 238° |
| 2026-05-05 20:26 | 43.45063 | 39.95269 | 88 ft | 19 kts | 245° |
| 2026-05-05 20:26 | 43.45005 | 39.95103 | 84 ft | 18 kts | 239° |
| 2026-05-05 20:27 | 43.44939 | 39.94967 | 75 ft | 15 kts | 245° |
| 2026-05-05 20:27 | 43.44890 | 39.94824 | 74 ft | 18 kts | 245° |
| 2026-05-05 20:27 | 43.44839 | 39.94673 | 65 ft | 17 kts | 245° |
| 2026-05-05 20:27 | 43.44794 | 39.94541 | 69 ft | 14 kts | 245° |
| 2026-05-05 20:28 | 43.44759 | 39.94438 | 69 ft | 9 kts | 252° |
| 2026-05-05 20:28 | 43.44782 | 39.94394 | 68 ft | 5 kts | 333° |
| 2026-05-05 20:28 | 43.44803 | 39.94381 | 70 ft | 1 kts | 334° |
| 2026-05-05 20:28 | 43.44809 | 39.94377 | 66 ft | 0 kts | 334° |